Wrightsville, Arkansas
Current Conditions -  °F | °C
As of 9:53 AM on Friday 31 Oct 2014 (Local Time) from KLIT Reporting Station
Clear Clear  
Wind Chill: 59°   Ceiling: Unl
Heat Index: 59°   Visibility: 10mi
Dew Point: 40°   Wind: 16mph
Humidity: 49%   Direction: 10°N
Pressure: 30.2"   Gusts: 29mph
Location:  34.6°N, 92.22°W
Report Text: KLIT 311453Z 01014G25KT 10SM CLR 15/04 A3020 RMK AO2 SLP228 T01500044 51030
Loading
Personal Weather Stations






























Interactive Weather Map
Tropical Storm Tracking
New forecast layout! Learn more

10-Day Weather Forecast

Advertisements
Track Severe Weather on mobile